createdAt,value
2019-02-11T00:01:33.193Z,99785.63
2019-02-11T00:02:40.092Z,99789.83
2019-02-11T00:03:47.084Z,99786.91
2019-02-11T00:04:53.755Z,99785.66
2019-02-11T00:06:00.455Z,99793.31
2019-02-11T00:07:07.829Z,99797.59
2019-02-11T00:08:14.907Z,99798.44
2019-02-11T00:09:21.644Z,99800.12
2019-02-11T00:10:28.686Z,99806.84
2019-02-11T00:11:35.706Z,99807.70
2019-02-11T00:12:42.431Z,99806.79
2019-02-11T00:13:49.455Z,99811.88
2019-02-11T00:14:56.110Z,99819.00
2019-02-11T00:16:02.841Z,99819.38
2019-02-11T00:17:09.938Z,99820.33
2019-02-11T00:18:17.283Z,99831.70
2019-02-11T00:19:24.010Z,99829.14
2019-02-11T00:20:30.878Z,99823.17
2019-02-11T00:21:37.554Z,99835.85
2019-02-11T00:22:44.561Z,99835.03
2019-02-11T00:23:51.322Z,99836.77
2019-02-11T00:24:58.361Z,99840.13
2019-02-11T00:26:05.499Z,99839.69
2019-02-11T00:27:12.162Z,99849.83
2019-02-11T00:28:19.729Z,99851.08
2019-02-11T00:29:26.365Z,99849.00
2019-02-11T00:30:34.280Z,99858.70
2019-02-11T00:31:41.573Z,99854.06
2019-02-11T00:32:49.008Z,99854.94
2019-02-11T00:33:55.703Z,99855.83
2019-02-11T00:35:02.678Z,99862.18
2019-02-11T00:36:09.795Z,99869.31
2019-02-11T00:37:16.523Z,99868.51
2019-02-11T00:38:23.197Z,99872.27
2019-02-11T00:39:30.025Z,99874.39
2019-02-11T00:40:36.706Z,99885.36
2019-02-11T00:41:43.686Z,99882.02
2019-02-11T00:42:50.415Z,99887.91
2019-02-11T00:43:57.459Z,99895.06
2019-02-11T00:45:04.958Z,99895.06
2019-02-11T00:46:11.654Z,99895.48
2019-02-11T00:47:18.333Z,99896.70
2019-02-11T00:48:25.357Z,99906.48
2019-02-11T00:49:32.370Z,99908.48
2019-02-11T00:50:39.118Z,99911.02
2019-02-11T00:51:45.776Z,99914.78
2019-02-11T00:52:53.141Z,99919.47
2019-02-11T00:54:00.154Z,99922.82
2019-02-11T00:55:07.391Z,99916.48
2019-02-11T00:56:14.494Z,99928.71
2019-02-11T00:57:21.482Z,99933.34
2019-02-11T00:58:28.560Z,99926.89
2019-02-11T00:59:35.924Z,99935.82
2019-02-11T01:00:42.646Z,99932.50
2019-02-11T01:01:49.995Z,99941.84
2019-02-11T01:02:57.496Z,99942.25
2019-02-11T01:04:04.660Z,99947.39
2019-02-11T01:05:11.315Z,99946.45
2019-02-11T01:06:18.413Z,99945.19
2019-02-11T01:07:25.068Z,99948.09
2019-02-11T01:08:32.051Z,99952.32
2019-02-11T01:09:39.321Z,99963.42
2019-02-11T01:10:46.276Z,99962.08
2019-02-11T01:11:53.025Z,99968.92
2019-02-11T01:12:59.724Z,99964.74
2019-02-11T01:14:06.492Z,99973.59
2019-02-11T01:15:14.205Z,99979.11
2019-02-11T01:16:21.659Z,99988.88
2019-02-11T01:17:28.378Z,99979.06
2019-02-11T01:18:35.761Z,99989.70
2019-02-11T01:19:42.479Z,99987.60
2019-02-11T01:20:49.503Z,99996.97
2019-02-11T01:21:56.633Z,99993.56
2019-02-11T01:23:03.615Z,100001.99
2019-02-11T01:24:10.820Z,100002.84
2019-02-11T01:25:17.816Z,100003.20
2019-02-11T01:26:24.487Z,99998.63
2019-02-11T01:27:31.206Z,100008.35
2019-02-11T01:28:38.184Z,100011.73
2019-02-11T01:29:44.870Z,100015.12
2019-02-11T01:30:51.898Z,100018.98
2019-02-11T01:31:58.573Z,100025.80
2019-02-11T01:33:05.398Z,100024.98
2019-02-11T01:34:12.060Z,100035.53
2019-02-11T01:35:18.770Z,100026.69
2019-02-11T01:36:25.459Z,100030.08
2019-02-11T01:37:32.132Z,100030.93
2019-02-11T01:38:39.208Z,100031.35
2019-02-11T01:39:46.282Z,100031.72
2019-02-11T01:40:52.933Z,100042.42
2019-02-11T01:42:00.436Z,100041.98
2019-02-11T01:43:07.427Z,100045.03
2019-02-11T01:44:14.495Z,100046.28
2019-02-11T01:45:21.564Z,100047.16
2019-02-11T01:46:28.598Z,100048.05
2019-02-11T01:47:35.335Z,100048.03
2019-02-11T01:48:42.411Z,100061.58
2019-02-11T01:49:49.133Z,100064.56
2019-02-11T01:50:55.784Z,100063.67
2019-02-11T01:52:02.520Z,100063.66
2019-02-11T01:53:09.272Z,100066.59
2019-02-11T01:54:16.017Z,100075.91
2019-02-11T01:55:22.678Z,100077.61
2019-02-11T01:56:29.690Z,100082.73
2019-02-11T01:57:36.750Z,100076.83
2019-02-11T01:58:43.778Z,100092.48
2019-02-11T01:59:51.133Z,100095.84
2019-02-11T02:00:58.068Z,100103.05
2019-02-11T02:02:04.732Z,100090.75
2019-02-11T02:03:11.802Z,100097.95
2019-02-11T02:04:19.229Z,100100.12
2019-02-11T02:05:25.996Z,100097.48
2019-02-11T02:06:32.684Z,100095.81
2019-02-11T02:07:39.642Z,100098.39
2019-02-11T02:08:46.720Z,100101.06
2019-02-11T02:09:53.448Z,100101.91
2019-02-11T02:11:00.084Z,100102.00
2019-02-11T02:12:07.240Z,100104.94
2019-02-11T02:13:13.914Z,100107.45
2019-02-11T02:14:20.938Z,100113.95
2019-02-11T02:15:27.612Z,100108.89
2019-02-11T02:16:34.277Z,100117.34
2019-02-11T02:17:41.304Z,100119.07
2019-02-11T02:18:48.370Z,100119.47
2019-02-11T02:19:55.041Z,100122.44
2019-02-11T02:21:01.730Z,100122.05
2019-02-11T02:22:08.812Z,100117.81
2019-02-11T02:23:15.514Z,100128.41
2019-02-11T02:24:22.214Z,100126.23
2019-02-11T02:25:29.244Z,100132.22
2019-02-11T02:26:36.673Z,100138.95
2019-02-11T02:27:43.380Z,100133.48
2019-02-11T02:28:50.267Z,100137.33
2019-02-11T02:29:57.695Z,100130.59
2019-02-11T02:31:04.332Z,100132.27
2019-02-11T02:32:11.683Z,100140.75
2019-02-11T02:33:18.335Z,100139.89
2019-02-11T02:34:25.658Z,100139.88
2019-02-11T02:35:32.724Z,100141.14
2019-02-11T02:36:39.456Z,100143.30
2019-02-11T02:37:46.522Z,100146.68
2019-02-11T02:38:53.938Z,100141.21
2019-02-11T02:40:01.030Z,100148.02
2019-02-11T02:41:07.686Z,100150.58
2019-02-11T02:42:14.731Z,100154.84
2019-02-11T02:43:21.455Z,100152.76
2019-02-11T02:44:28.153Z,100148.54
2019-02-11T02:45:35.170Z,100152.35
2019-02-11T02:46:41.851Z,100155.25
2019-02-11T02:47:48.566Z,100155.66
2019-02-11T02:48:55.694Z,100153.59
2019-02-11T02:50:02.749Z,100156.97
2019-02-11T02:51:09.465Z,100162.48
2019-02-11T02:52:16.239Z,100159.95
2019-02-11T02:53:23.256Z,100162.95
2019-02-11T02:54:31.809Z,100160.89
2019-02-11T02:55:38.806Z,100170.21
2019-02-11T02:56:46.142Z,100176.16
2019-02-11T02:57:53.135Z,100174.42
2019-02-11T02:58:59.856Z,100174.06
2019-02-11T03:00:09.592Z,100177.09
2019-02-11T03:01:16.297Z,100177.06
2019-02-11T03:02:22.960Z,100185.59
2019-02-11T03:03:29.733Z,100188.16
2019-02-11T03:04:36.422Z,100191.55
2019-02-11T03:05:43.106Z,100198.79
2019-02-11T03:06:49.837Z,100199.63
2019-02-11T03:07:56.500Z,100201.36
2019-02-11T03:09:04.902Z,100203.89
2019-02-11T03:10:12.123Z,100202.23
2019-02-11T03:11:19.216Z,100198.02
2019-02-11T03:12:26.678Z,100201.00
2019-02-11T03:13:33.762Z,100202.72
2019-02-11T03:14:40.429Z,100205.69
2019-02-11T03:15:47.161Z,100211.62
2019-02-11T03:16:53.858Z,100206.99
2019-02-11T03:18:00.605Z,100217.61
2019-02-11T03:19:07.575Z,100217.61
2019-02-11T03:20:14.683Z,100220.23
2019-02-11T03:21:21.718Z,100220.63
2019-02-11T03:22:29.137Z,100216.00
2019-02-11T03:23:35.822Z,100219.80
2019-02-11T03:24:42.521Z,100220.25
2019-02-11T03:25:49.194Z,100227.05
2019-02-11T03:26:56.307Z,100225.34
2019-02-11T03:28:03.020Z,100226.16
2019-02-11T03:29:10.088Z,100229.13
2019-02-11T03:30:17.057Z,100233.84
2019-02-11T03:31:23.816Z,100232.16
2019-02-11T03:32:30.886Z,100232.60
2019-02-11T03:33:38.532Z,100227.97
2019-02-11T03:34:45.938Z,100236.03
2019-02-11T03:35:52.917Z,100237.77
2019-02-11T03:37:00.232Z,100233.53
2019-02-11T03:38:06.950Z,100232.30
2019-02-11T03:39:13.681Z,100233.14
2019-02-11T03:40:21.215Z,100236.13
2019-02-11T03:41:28.041Z,100236.95
2019-02-11T03:42:34.685Z,100248.75
2019-02-11T03:43:41.370Z,100251.72
2019-02-11T03:44:48.749Z,100251.73
2019-02-11T03:45:55.733Z,100250.91
2019-02-11T03:47:03.004Z,100251.83
2019-02-11T03:48:10.093Z,100256.06
2019-02-11T03:49:17.971Z,100256.50
2019-02-11T03:50:25.163Z,100258.16
2019-02-11T03:51:31.840Z,100265.34
2019-02-11T03:52:38.552Z,100270.41
2019-02-11T03:53:45.293Z,100270.41
2019-02-11T03:54:52.692Z,100279.34
2019-02-11T03:55:59.725Z,100275.11
2019-02-11T03:57:06.739Z,100278.91
2019-02-11T03:58:13.482Z,100283.99
2019-02-11T03:59:20.590Z,100286.16
2019-02-11T04:00:27.273Z,100285.77
2019-02-11T04:01:34.213Z,100292.95
2019-02-11T04:02:40.913Z,100290.02
2019-02-11T04:03:47.934Z,100289.59
2019-02-11T04:04:54.688Z,100302.27
2019-02-11T04:06:01.697Z,100299.29
2019-02-11T04:07:09.125Z,100308.61
2019-02-11T04:08:15.798Z,100309.05
2019-02-11T04:09:23.385Z,100307.78
2019-02-11T04:10:30.029Z,100308.61
2019-02-11T04:11:37.166Z,100312.41
2019-02-11T04:12:44.615Z,100309.89
2019-02-11T04:13:51.644Z,100316.66
2019-02-11T04:14:58.707Z,100311.98
2019-02-11T04:16:05.948Z,100317.49
2019-02-11T04:17:12.728Z,100322.13
2019-02-11T04:18:19.672Z,100324.64
2019-02-11T04:19:26.389Z,100325.48
2019-02-11T04:20:33.025Z,100326.80
2019-02-11T04:21:39.749Z,100330.17
2019-02-11T04:22:46.429Z,100335.25
2019-02-11T04:23:53.531Z,100345.39
2019-02-11T04:25:00.275Z,100346.27
2019-02-11T04:26:07.553Z,100349.25
2019-02-11T04:27:14.888Z,100353.08
2019-02-11T04:28:21.633Z,100353.52
2019-02-11T04:29:28.307Z,100350.14
2019-02-11T04:30:34.999Z,100354.39
2019-02-11T04:31:42.037Z,100352.26
2019-02-11T04:32:49.046Z,100353.56
2019-02-11T04:33:58.252Z,100354.83
2019-02-11T04:35:04.917Z,100365.38
2019-02-11T04:36:11.888Z,100362.84
2019-02-11T04:37:18.599Z,100368.78
2019-02-11T04:38:25.247Z,100375.52
2019-02-11T04:39:31.948Z,100374.67
2019-02-11T04:40:38.687Z,100375.08
2019-02-11T04:41:45.380Z,100385.22
2019-02-11T04:42:52.105Z,100383.52
2019-02-11T04:43:59.143Z,100385.21
2019-02-11T04:45:06.917Z,100388.63
2019-02-11T04:46:13.887Z,100391.21
2019-02-11T04:47:20.952Z,100388.24
2019-02-11T04:48:28.046Z,100391.17
2019-02-11T04:49:34.993Z,100396.25
2019-02-11T04:50:41.962Z,100397.13
2019-02-11T04:51:48.970Z,100394.16
2019-02-11T04:52:56.261Z,100400.09
2019-02-11T04:54:03.659Z,100404.34
2019-02-11T04:55:10.839Z,100402.20
2019-02-11T04:56:17.478Z,100406.04
2019-02-11T04:57:24.203Z,100407.31
2019-02-11T04:58:30.867Z,100406.45
2019-02-11T04:59:37.881Z,100409.41
2019-02-11T05:00:45.057Z,100406.48
2019-02-11T05:01:51.747Z,100411.98
2019-02-11T05:02:59.199Z,100410.28
2019-02-11T05:04:05.877Z,100405.61
2019-02-11T05:05:12.678Z,100405.66
2019-02-11T05:06:19.304Z,100403.56
2019-02-11T05:07:26.392Z,100406.09
2019-02-11T05:08:33.069Z,100408.62
2019-02-11T05:09:39.726Z,100414.13
2019-02-11T05:10:46.526Z,100418.33
2019-02-11T05:11:53.554Z,100417.50
2019-02-11T05:13:00.276Z,100418.77
2019-02-11T05:14:07.014Z,100422.17
2019-02-11T05:15:14.070Z,100421.73
2019-02-11T05:16:21.156Z,100421.73
2019-02-11T05:17:27.794Z,100421.34
2019-02-11T05:18:34.891Z,100424.70
2019-02-11T05:19:41.574Z,100426.41
2019-02-11T05:20:48.866Z,100431.47
2019-02-11T05:21:55.544Z,100426.80
2019-02-11T05:23:02.351Z,100427.64
2019-02-11T05:24:08.999Z,100432.30
2019-02-11T05:25:15.684Z,100436.55
2019-02-11T05:26:22.904Z,100438.24
2019-02-11T05:27:29.946Z,100431.88
2019-02-11T05:28:37.190Z,100434.41
2019-02-11T05:29:43.881Z,100435.67
2019-02-11T05:30:50.600Z,100429.34
2019-02-11T05:31:57.287Z,100439.91
2019-02-11T05:33:04.082Z,100439.04
2019-02-11T05:34:10.867Z,100436.51
2019-02-11T05:35:17.490Z,100439.44
2019-02-11T05:36:24.524Z,100440.31
2019-02-11T05:37:31.505Z,100442.38
2019-02-11T05:38:38.893Z,100444.51
2019-02-11T05:39:45.538Z,100436.06
2019-02-11T05:40:52.206Z,100446.17
2019-02-11T05:41:58.907Z,100441.11
2019-02-11T05:43:05.632Z,100445.34
2019-02-11T05:44:12.301Z,100442.77
2019-02-11T05:45:19.352Z,100444.47
2019-02-11T05:46:26.003Z,100449.94
2019-02-11T05:47:32.695Z,100449.09
2019-02-11T05:48:39.700Z,100449.49
2019-02-11T05:49:46.684Z,100451.59
2019-02-11T05:50:53.361Z,100452.38
2019-02-11T05:52:00.086Z,100455.35
2019-02-11T05:53:07.091Z,100462.57
2019-02-11T05:54:13.777Z,100455.79
2019-02-11T05:55:20.503Z,100458.75
2019-02-11T05:56:27.170Z,100461.30
2019-02-11T05:57:34.495Z,100463.40
2019-02-11T05:58:41.457Z,100464.66
2019-02-11T05:59:48.153Z,100468.03
2019-02-11T06:00:54.843Z,100475.64
2019-02-11T06:02:01.544Z,100483.64
2019-02-11T06:03:09.583Z,100484.52
2019-02-11T06:04:17.173Z,100493.79
2019-02-11T06:05:24.560Z,100489.11
2019-02-11T06:06:31.989Z,100500.52
2019-02-11T06:07:38.809Z,100506.43
2019-02-11T06:08:45.839Z,100506.86
2019-02-11T06:09:52.488Z,100508.95
2019-02-11T06:10:59.217Z,100518.67
2019-02-11T06:12:06.274Z,100522.48
2019-02-11T06:13:12.943Z,100521.20
2019-02-11T06:14:19.980Z,100529.66
2019-02-11T06:15:26.655Z,100536.00
2019-02-11T06:16:33.319Z,100535.13
2019-02-11T06:17:40.160Z,100537.22
2019-02-11T06:18:47.043Z,100545.71
2019-02-11T06:19:54.024Z,100545.31
2019-02-11T06:21:00.724Z,100554.19
2019-02-11T06:22:07.458Z,100563.03
2019-02-11T06:23:14.183Z,100562.59
2019-02-11T06:24:20.884Z,100561.76
2019-02-11T06:25:27.606Z,100573.18
2019-02-11T06:26:34.292Z,100571.08
2019-02-11T06:27:41.014Z,100575.28
2019-02-11T06:28:47.680Z,100572.31
2019-02-11T06:29:54.405Z,100574.45
2019-02-11T06:31:01.117Z,100561.77
2019-02-11T06:32:07.803Z,100579.92
2019-02-11T06:33:14.481Z,100580.80
2019-02-11T06:34:21.644Z,100586.70
2019-02-11T06:35:28.503Z,100585.44
2019-02-11T06:36:35.496Z,100585.87
2019-02-11T06:37:42.596Z,100582.50
2019-02-11T06:38:49.316Z,100587.98
2019-02-11T06:39:56.328Z,100589.23
2019-02-11T06:41:03.251Z,100589.23
2019-02-11T06:42:10.396Z,100593.02
2019-02-11T06:43:17.087Z,100599.78
2019-02-11T06:44:23.758Z,100600.66
2019-02-11T06:45:30.425Z,100595.98
2019-02-11T06:46:37.616Z,100601.93
2019-02-11T06:47:44.310Z,100607.44
2019-02-11T06:48:50.950Z,100604.88
2019-02-11T06:49:57.625Z,100615.02
2019-02-11T06:51:05.073Z,100608.27
2019-02-11T06:52:11.892Z,100613.34
2019-02-11T06:53:18.562Z,100626.44
2019-02-11T06:54:25.934Z,100621.37
2019-02-11T06:55:32.899Z,100623.50
2019-02-11T06:56:39.611Z,100622.67
2019-02-11T06:57:46.684Z,100620.97
2019-02-11T06:58:53.724Z,100634.89
2019-02-11T07:00:01.026Z,100632.35
2019-02-11T07:01:08.133Z,100634.05
2019-02-11T07:02:15.149Z,100630.25
2019-02-11T07:03:22.308Z,100641.20
2019-02-11T07:04:29.041Z,100636.59
2019-02-11T07:05:35.718Z,100643.34
2019-02-11T07:06:42.419Z,100646.71
2019-02-11T07:07:50.003Z,100649.25
2019-02-11T07:08:56.668Z,100656.43
2019-02-11T07:10:03.930Z,100658.13
2019-02-11T07:11:11.107Z,100672.09
2019-02-11T07:12:18.124Z,100670.39
2019-02-11T07:13:24.830Z,100662.77
2019-02-11T07:14:31.503Z,100671.66
2019-02-11T07:15:38.257Z,100676.73
2019-02-11T07:16:44.912Z,100681.38
2019-02-11T07:17:51.568Z,100682.22
2019-02-11T07:18:58.951Z,100691.10
2019-02-11T07:20:06.498Z,100691.94
2019-02-11T07:21:13.158Z,100692.38
2019-02-11T07:22:20.091Z,100704.23
2019-02-11T07:23:26.762Z,100699.98
2019-02-11T07:24:34.224Z,100703.80
2019-02-11T07:25:40.967Z,100708.44
2019-02-11T07:26:48.507Z,100713.52
2019-02-11T07:27:55.186Z,100709.71
2019-02-11T07:29:02.207Z,100719.87
2019-02-11T07:30:10.906Z,100717.33
2019-02-11T07:31:17.950Z,100722.81
2019-02-11T07:32:24.813Z,100717.73
2019-02-11T07:33:34.895Z,100723.24
2019-02-11T07:34:41.586Z,100730.86
2019-02-11T07:35:48.310Z,100729.99
2019-02-11T07:36:54.981Z,100734.67
2019-02-11T07:38:01.660Z,100733.41
2019-02-11T07:39:10.879Z,100732.13
2019-02-11T07:40:17.553Z,100740.59
2019-02-11T07:41:32.143Z,100733.41
2019-02-11T07:42:52.823Z,100732.97
2019-02-11T07:44:04.776Z,100739.75
2019-02-11T07:45:37.304Z,100745.66
2019-02-11T07:46:47.399Z,100743.13
2019-02-11T07:47:54.154Z,100750.74
2019-02-11T07:49:01.238Z,100752.45
2019-02-11T07:50:08.390Z,100757.52
2019-02-11T07:51:15.062Z,100757.53
2019-02-11T07:52:26.875Z,100757.49
2019-02-11T07:53:30.264Z,100758.80
2019-02-11T07:54:37.022Z,100761.73
2019-02-11T07:55:43.743Z,100767.69
2019-02-11T07:56:50.416Z,100774.03
2019-02-11T07:57:57.434Z,100770.62
2019-02-11T07:59:04.473Z,100766.81
2019-02-11T08:00:11.607Z,100776.98
2019-02-11T08:01:18.336Z,100785.44
2019-02-11T08:02:25.714Z,100777.81
2019-02-11T08:03:32.787Z,100790.92
2019-02-11T08:04:39.556Z,100787.97
2019-02-11T08:05:46.206Z,100798.13
2019-02-11T08:06:53.186Z,100802.78
2019-02-11T08:08:00.228Z,100801.91
2019-02-11T08:09:08.998Z,100806.16
2019-02-11T08:10:16.107Z,100809.54
2019-02-11T08:11:23.508Z,100813.75
2019-02-11T08:12:30.215Z,100823.08
2019-02-11T08:13:36.894Z,100828.16
2019-02-11T08:14:43.610Z,100831.10
2019-02-11T08:15:50.477Z,100841.27
2019-02-11T08:16:57.769Z,100838.29
2019-02-11T08:18:04.881Z,100840.40
2019-02-11T08:19:12.225Z,100843.34
2019-02-11T08:20:19.713Z,100851.84
2019-02-11T08:21:26.802Z,100848.43
2019-02-11T08:22:33.867Z,100851.41
2019-02-11T08:23:40.982Z,100859.03
2019-02-11T08:24:48.029Z,100857.73
2019-02-11T08:25:55.060Z,100859.00
2019-02-11T08:27:02.427Z,100859.84
2019-02-11T08:28:09.136Z,100864.05
2019-02-11T08:29:15.797Z,100868.70
2019-02-11T08:30:22.777Z,100866.16
2019-02-11T08:31:29.486Z,100872.95
2019-02-11T08:32:36.214Z,100875.05
2019-02-11T08:33:42.915Z,100883.95
2019-02-11T08:34:50.218Z,100869.93
2019-02-11T08:35:56.882Z,100874.58
2019-02-11T08:37:03.549Z,100879.66
2019-02-11T08:38:10.411Z,100875.89
2019-02-11T08:39:18.145Z,100875.05
2019-02-11T08:40:25.829Z,100876.76
2019-02-11T08:41:33.182Z,100875.48
2019-02-11T08:42:39.910Z,100886.09
2019-02-11T08:43:47.361Z,100877.63
2019-02-11T08:44:54.010Z,100890.34
2019-02-11T08:46:00.763Z,100887.40
2019-02-11T08:47:07.596Z,100889.07
2019-02-11T08:48:14.260Z,100890.34
2019-02-11T08:49:21.360Z,100890.34
2019-02-11T08:50:28.030Z,100897.53
2019-02-11T08:51:35.551Z,100895.83
2019-02-11T08:52:42.619Z,100901.78
2019-02-11T08:53:49.765Z,100910.68
2019-02-11T08:54:57.029Z,100909.81
2019-02-11T08:56:04.166Z,100910.21
2019-02-11T08:57:11.313Z,100917.38
2019-02-11T08:58:18.322Z,100917.34
2019-02-11T08:59:25.051Z,100921.98
2019-02-11T09:00:31.808Z,100918.52
2019-02-11T09:01:39.475Z,100919.75
2019-02-11T09:02:46.740Z,100927.77
2019-02-11T09:03:53.463Z,100929.42
2019-02-11T09:05:00.289Z,100939.11
2019-02-11T09:06:07.397Z,100933.94
2019-02-11T09:07:14.476Z,100942.84
2019-02-11T09:08:21.903Z,100946.23
2019-02-11T09:09:28.931Z,100944.56
2019-02-11T09:10:35.985Z,100951.78
2019-02-11T09:11:42.690Z,100951.77
2019-02-11T09:12:49.737Z,100950.94
2019-02-11T09:13:56.769Z,100960.62
2019-02-11T09:15:03.505Z,100969.55
2019-02-11T09:16:10.212Z,100975.47
2019-02-11T09:17:17.170Z,100975.06
2019-02-11T09:18:23.837Z,100979.34
2019-02-11T09:19:30.498Z,100981.50
2019-02-11T09:20:37.582Z,100982.33
2019-02-11T09:21:44.294Z,100989.98
2019-02-11T09:22:51.282Z,100984.49
2019-02-11T09:23:57.934Z,100990.89
2019-02-11T09:25:05.506Z,100985.33
2019-02-11T09:26:13.301Z,100992.13
2019-02-11T09:27:20.158Z,100997.66
2019-02-11T09:28:27.230Z,101001.08
2019-02-11T09:29:33.999Z,101010.84
2019-02-11T09:30:40.668Z,101003.67
2019-02-11T09:31:47.591Z,101018.12
2019-02-11T09:32:54.313Z,101015.17
2019-02-11T09:34:01.011Z,101022.80
2019-02-11T09:35:07.978Z,101023.20
2019-02-11T09:36:15.018Z,101030.44
2019-02-11T09:37:21.763Z,101032.98
2019-02-11T09:38:28.678Z,101041.45
2019-02-11T09:39:35.349Z,101042.26
2019-02-11T09:40:42.055Z,101043.49
2019-02-11T09:41:49.136Z,101040.06
2019-02-11T09:42:55.880Z,101046.78
2019-02-11T09:44:02.908Z,101045.01
2019-02-11T09:45:14.273Z,101049.27
2019-02-11T09:46:22.291Z,101052.27
2019-02-11T09:47:28.940Z,101052.27
2019-02-11T09:48:35.705Z,101050.98
2019-02-11T09:49:42.394Z,101055.62
2019-02-11T09:50:52.650Z,101056.46
2019-02-11T09:51:59.533Z,101060.23
2019-02-11T09:53:07.314Z,101058.06
2019-02-11T09:54:14.351Z,101061.84
2019-02-11T09:55:25.080Z,101064.39
2019-02-11T09:56:32.430Z,101063.94
2019-02-11T09:57:39.410Z,101075.38
2019-02-11T09:58:46.279Z,101076.60
2019-02-11T09:59:53.294Z,101074.06
2019-02-11T10:01:00.572Z,101083.43
2019-02-11T10:02:07.523Z,101081.27
2019-02-11T10:03:14.234Z,101082.53
2019-02-11T10:04:21.361Z,101083.88
2019-02-11T10:05:28.024Z,101086.44
2019-02-11T10:06:34.875Z,101091.08
2019-02-11T10:07:41.826Z,101093.63
2019-02-11T10:08:48.860Z,101094.45
2019-02-11T10:09:55.554Z,101092.30
2019-02-11T10:11:02.655Z,101094.82
2019-02-11T10:12:10.024Z,101102.41
2019-02-11T10:13:16.700Z,101099.88
2019-02-11T10:14:23.743Z,101104.20
2019-02-11T10:15:30.783Z,101109.31
2019-02-11T10:16:37.526Z,101109.31
2019-02-11T10:17:44.202Z,101114.41
2019-02-11T10:18:50.884Z,101125.05
2019-02-11T10:19:57.549Z,101110.58
2019-02-11T10:21:04.717Z,101126.44
2019-02-11T10:22:11.365Z,101132.45
2019-02-11T10:23:18.042Z,101142.25
2019-02-11T10:24:24.708Z,101140.98
2019-02-11T10:25:31.880Z,101144.00
2019-02-11T10:26:38.520Z,101141.05
2019-02-11T10:27:45.176Z,101148.28
2019-02-11T10:28:52.165Z,101144.03
2019-02-11T10:29:59.143Z,101144.89
2019-02-11T10:31:05.862Z,101144.09
2019-02-11T10:32:12.723Z,101159.38
2019-02-11T10:33:19.724Z,101141.97
2019-02-11T10:34:26.422Z,101160.23
2019-02-11T10:35:42.036Z,101159.37
2019-02-11T10:36:45.052Z,101160.66
2019-02-11T10:37:51.738Z,101166.19
2019-02-11T10:38:58.739Z,101172.12
2019-02-11T10:40:06.452Z,101174.21
2019-02-11T10:41:13.510Z,101179.31
2019-02-11T10:42:20.586Z,101180.56
2019-02-11T10:43:27.258Z,101183.94
2019-02-11T10:44:33.970Z,101185.18
2019-02-11T10:45:40.622Z,101186.86
2019-02-11T10:46:47.571Z,101181.73
2019-02-11T10:47:54.576Z,101185.99
2019-02-11T10:49:01.548Z,101192.39
2019-02-11T10:50:09.458Z,101195.40
2019-02-11T10:51:16.171Z,101195.80
2019-02-11T10:52:22.909Z,101194.09
2019-02-11T10:53:29.939Z,101201.30
2019-02-11T10:54:36.646Z,101208.52
2019-02-11T10:55:43.457Z,101202.55
2019-02-11T10:56:50.133Z,101206.34
2019-02-11T10:57:56.789Z,101213.55
2019-02-11T10:59:03.521Z,101221.59
2019-02-11T11:00:19.289Z,101215.19
2019-02-11T11:01:26.024Z,101216.03
2019-02-11T11:02:33.379Z,101218.97
2019-02-11T11:03:40.402Z,101222.31
2019-02-11T11:04:47.219Z,101219.72
2019-02-11T11:05:54.280Z,101225.25
2019-02-11T11:07:01.012Z,101223.48
2019-02-11T11:08:08.105Z,101231.53
2019-02-11T11:09:16.966Z,101231.52
2019-02-11T11:10:35.761Z,101245.94
2019-02-11T11:11:42.440Z,101245.55
2019-02-11T11:12:49.438Z,101254.88
2019-02-11T11:13:56.469Z,101255.70
2019-02-11T11:15:03.330Z,101259.08
2019-02-11T11:16:10.369Z,101258.20
2019-02-11T11:17:17.714Z,101268.42
2019-02-11T11:18:24.420Z,101255.19
2019-02-11T11:19:31.120Z,101271.37
2019-02-11T11:20:38.367Z,101270.97
2019-02-11T11:21:45.058Z,101269.66
2019-02-11T11:22:51.772Z,101268.33
2019-02-11T11:23:58.433Z,101273.78
2019-02-11T11:25:05.605Z,101268.16
2019-02-11T11:26:12.272Z,101268.07
2019-02-11T11:27:18.998Z,101275.59
2019-02-11T11:28:25.708Z,101278.05
2019-02-11T11:29:32.926Z,101289.85
2019-02-11T11:30:40.757Z,101284.00
2019-02-11T11:31:47.744Z,101288.83
2019-02-11T11:32:55.198Z,101285.08
2019-02-11T11:34:02.110Z,101310.69
2019-02-11T11:35:09.874Z,101309.84
2019-02-11T11:36:16.514Z,101315.02
2019-02-11T11:37:23.637Z,101324.84
2019-02-11T11:38:30.746Z,101328.30
2019-02-11T11:39:37.862Z,101331.29
2019-02-11T11:40:44.936Z,101337.67
2019-02-11T11:41:51.585Z,101338.11
2019-02-11T11:42:58.576Z,101341.05
2019-02-11T11:44:05.576Z,101342.77
2019-02-11T11:45:15.978Z,101338.50
2019-02-11T11:46:23.430Z,101346.20
2019-02-11T11:47:30.483Z,101345.81
2019-02-11T11:48:37.519Z,101339.89
2019-02-11T11:49:44.257Z,101345.87
2019-02-11T11:50:51.298Z,101350.57
2019-02-11T11:51:58.797Z,101353.52
2019-02-11T11:53:05.673Z,101353.52
2019-02-11T11:54:12.348Z,101354.83
2019-02-11T11:55:20.320Z,101363.33
2019-02-11T11:56:27.496Z,101362.02
2019-02-11T11:57:34.172Z,101369.63
2019-02-11T11:58:40.862Z,101379.83
2019-02-11T11:59:47.889Z,101384.05
2019-02-11T12:00:54.540Z,101375.52
2019-02-11T12:02:01.289Z,101380.17
2019-02-11T12:03:08.456Z,101381.80
2019-02-11T12:04:15.725Z,101383.45
2019-02-11T12:05:22.528Z,101393.27
2019-02-11T12:06:29.255Z,101401.34
2019-02-11T12:07:35.956Z,101397.50
2019-02-11T12:08:43.045Z,101414.93
2019-02-11T12:09:49.691Z,101416.20
2019-02-11T12:10:56.549Z,101413.22
2019-02-11T12:12:03.662Z,101417.92
2019-02-11T12:13:22.299Z,101425.55
2019-02-11T12:14:20.792Z,101427.26
2019-02-11T12:15:28.208Z,101423.86
2019-02-11T12:16:34.981Z,101429.80
2019-02-11T12:17:42.163Z,101417.42
2019-02-11T12:18:49.148Z,101426.36
2019-02-11T12:19:55.940Z,101428.08
2019-02-11T12:21:02.592Z,101431.47
2019-02-11T12:22:12.851Z,101428.88
2019-02-11T12:23:17.769Z,101427.14
2019-02-11T12:24:24.458Z,101440.73
2019-02-11T12:25:31.165Z,101438.52
2019-02-11T12:26:38.132Z,101437.63
2019-02-11T12:27:44.803Z,101452.50
2019-02-11T12:28:52.234Z,101434.28
2019-02-11T12:29:58.882Z,101445.85
2019-02-11T12:31:05.661Z,101449.73
2019-02-11T12:32:12.493Z,101460.85
2019-02-11T12:33:19.294Z,101460.11
2019-02-11T12:34:26.056Z,101448.70
2019-02-11T12:35:32.790Z,101450.44
2019-02-11T12:36:39.492Z,101454.28
2019-02-11T12:37:46.132Z,101459.00
2019-02-11T12:38:52.872Z,101450.09
2019-02-11T12:39:59.569Z,101456.91
2019-02-11T12:41:06.344Z,101456.89
2019-02-11T12:42:13.024Z,101459.42
2019-02-11T12:43:19.829Z,101458.56
2019-02-11T12:44:26.484Z,101462.81
2019-02-11T12:45:33.186Z,101465.37
2019-02-11T12:46:39.879Z,101460.28
2019-02-11T12:47:46.912Z,101453.44
2019-02-11T12:48:53.657Z,101458.11